createdAt,value
2018-07-29T00:01:27.497Z,4.50
2018-07-29T00:03:55.381Z,4.13
2018-07-29T00:06:23.293Z,4.70
2018-07-29T00:08:51.213Z,4.97
2018-07-29T00:11:19.904Z,6.67
2018-07-29T00:13:48.556Z,5.33
2018-07-29T00:16:17.353Z,4.70
2018-07-29T00:18:45.830Z,5.60
2018-07-29T00:21:13.625Z,5.83
2018-07-29T00:23:42.273Z,5.90
2018-07-29T00:26:10.156Z,5.20
2018-07-29T00:28:38.437Z,4.90
2018-07-29T00:31:07.522Z,5.00
2018-07-29T00:33:35.871Z,5.40
2018-07-29T00:36:04.197Z,5.23
2018-07-29T00:38:32.558Z,6.47
2018-07-29T00:41:00.448Z,4.67
2018-07-29T00:43:29.380Z,5.67
2018-07-29T00:45:57.325Z,4.93
2018-07-29T00:48:25.653Z,6.33
2018-07-29T00:50:54.400Z,5.93
2018-07-29T00:53:23.382Z,5.53
2018-07-29T00:55:52.081Z,5.30
2018-07-29T00:58:20.188Z,7.10
2018-07-29T01:00:49.176Z,6.03
2018-07-29T01:03:17.483Z,6.17
2018-07-29T01:05:45.407Z,8.73
2018-07-29T01:08:14.046Z,7.83
2018-07-29T01:10:42.502Z,7.17
2018-07-29T01:13:10.879Z,7.60
2018-07-29T01:15:39.217Z,7.40
2018-07-29T01:18:07.832Z,6.87
2018-07-29T01:20:36.108Z,6.57
2018-07-29T01:23:04.697Z,7.20
2018-07-29T01:25:33.037Z,7.03
2018-07-29T01:28:01.720Z,7.10
2018-07-29T01:30:29.684Z,6.17
2018-07-29T01:32:57.904Z,6.73
2018-07-29T01:35:26.228Z,6.60
2018-07-29T01:37:54.480Z,7.00
2018-07-29T01:40:22.638Z,6.90
2018-07-29T01:42:50.573Z,9.37
2018-07-29T01:45:18.504Z,6.70
2018-07-29T01:47:47.493Z,7.10
2018-07-29T01:50:16.717Z,7.23
2018-07-29T01:52:45.933Z,7.73
2018-07-29T01:55:13.868Z,7.47
2018-07-29T01:57:42.288Z,6.70
2018-07-29T02:00:10.589Z,6.70
2018-07-29T02:02:38.488Z,8.03
2018-07-29T02:05:06.815Z,9.00
2018-07-29T02:07:34.756Z,10.10
2018-07-29T02:10:03.481Z,8.33
2018-07-29T02:12:31.393Z,7.00
2018-07-29T02:14:59.632Z,8.47
2018-07-29T02:17:27.524Z,7.87
2018-07-29T02:19:55.816Z,7.33
2018-07-29T02:22:24.664Z,7.63
2018-07-29T02:24:53.405Z,7.67
2018-07-29T02:27:21.768Z,7.80
2018-07-29T02:29:49.691Z,10.93
2018-07-29T02:32:18.089Z,11.73
2018-07-29T02:34:46.361Z,7.73
2018-07-29T02:37:14.577Z,7.67
2018-07-29T02:39:42.524Z,7.20
2018-07-29T02:42:12.207Z,8.00
2018-07-29T02:44:41.185Z,7.43
2018-07-29T02:47:09.506Z,6.10
2018-07-29T02:49:37.746Z,6.43
2018-07-29T02:52:06.164Z,7.77
2018-07-29T02:54:35.741Z,7.27
2018-07-29T02:57:04.017Z,7.23
2018-07-29T02:59:33.341Z,7.87
2018-07-29T03:02:01.170Z,6.93
2018-07-29T03:04:29.977Z,6.83
2018-07-29T03:06:58.761Z,6.97
2018-07-29T03:09:27.554Z,8.10
2018-07-29T03:11:55.507Z,7.23
2018-07-29T03:14:24.061Z,6.43
2018-07-29T03:16:52.013Z,5.43
2018-07-29T03:19:20.140Z,6.13
2018-07-29T03:21:49.279Z,5.43
2018-07-29T03:24:17.205Z,7.03
2018-07-29T03:26:45.384Z,5.80
2018-07-29T03:29:13.318Z,5.57
2018-07-29T03:31:42.345Z,4.67
2018-07-29T03:34:10.558Z,5.80
2018-07-29T03:36:38.369Z,6.20
2018-07-29T03:39:08.876Z,5.63
2018-07-29T03:41:37.614Z,6.90
2018-07-29T03:44:06.173Z,7.43
2018-07-29T03:46:34.065Z,5.97
2018-07-29T03:49:02.396Z,6.07
2018-07-29T03:51:30.214Z,5.60
2018-07-29T03:54:04.417Z,6.03
2018-07-29T03:56:33.124Z,6.27
2018-07-29T03:59:01.321Z,6.30
2018-07-29T04:01:29.461Z,6.53
2018-07-29T04:03:57.781Z,6.97
2018-07-29T04:06:25.744Z,6.63
2018-07-29T04:08:53.669Z,7.43
2018-07-29T04:11:21.820Z,6.80
2018-07-29T04:13:49.805Z,6.33
2018-07-29T04:16:17.736Z,11.10
2018-07-29T04:18:48.841Z,8.27
2018-07-29T04:21:16.777Z,8.77
2018-07-29T04:23:45.013Z,7.73
2018-07-29T04:26:13.479Z,6.50
2018-07-29T04:28:42.409Z,6.87
2018-07-29T04:31:12.164Z,6.77
2018-07-29T04:33:40.925Z,7.47
2018-07-29T04:36:09.181Z,7.10
2018-07-29T04:38:37.519Z,8.33
2018-07-29T04:41:06.920Z,8.27
2018-07-29T04:43:36.192Z,7.97
2018-07-29T04:46:05.288Z,8.17
2018-07-29T04:48:33.652Z,6.80
2018-07-29T04:51:01.595Z,5.80
2018-07-29T04:53:30.416Z,8.10
2018-07-29T04:55:59.361Z,6.57
2018-07-29T04:58:27.628Z,7.20
2018-07-29T05:00:55.569Z,7.73
2018-07-29T05:03:24.517Z,10.37
2018-07-29T05:05:52.953Z,6.90
2018-07-29T05:08:20.872Z,10.93
2018-07-29T05:10:48.805Z,8.03
2018-07-29T05:13:23.640Z,7.17
2018-07-29T05:15:51.689Z,8.50
2018-07-29T05:18:20.412Z,8.10
2018-07-29T05:20:48.725Z,6.30
2018-07-29T05:23:16.649Z,7.33
2018-07-29T05:25:44.554Z,9.50
2018-07-29T05:28:12.500Z,6.63
2018-07-29T05:30:40.829Z,6.70
2018-07-29T05:33:09.088Z,6.40
2018-07-29T05:35:37.456Z,6.43
2018-07-29T05:38:05.350Z,6.50
2018-07-29T05:40:33.273Z,6.50
2018-07-29T05:43:01.642Z,6.70
2018-07-29T05:45:29.609Z,7.00
2018-07-29T05:47:58.988Z,6.17
2018-07-29T05:50:27.185Z,6.10
2018-07-29T05:52:56.102Z,7.00
2018-07-29T05:55:24.864Z,7.10
2018-07-29T05:57:52.823Z,9.53
2018-07-29T06:00:21.105Z,5.87
2018-07-29T06:02:49.041Z,5.70
2018-07-29T06:05:18.961Z,5.57
2018-07-29T06:07:46.786Z,5.80
2018-07-29T06:10:14.712Z,5.60
2018-07-29T06:12:42.945Z,6.83
2018-07-29T06:15:11.221Z,6.30
2018-07-29T06:17:39.258Z,6.30
2018-07-29T06:20:10.540Z,6.10
2018-07-29T06:22:39.225Z,5.77
2018-07-29T06:25:08.645Z,5.63
2018-07-29T06:27:37.847Z,6.20
2018-07-29T06:30:06.509Z,6.27
2018-07-29T06:32:34.449Z,5.77
2018-07-29T06:35:02.376Z,5.60
2018-07-29T06:37:31.030Z,5.90
2018-07-29T06:39:58.972Z,6.50
2018-07-29T06:42:26.988Z,6.40
2018-07-29T06:44:55.996Z,6.50
2018-07-29T06:47:24.340Z,5.97
2018-07-29T06:49:52.268Z,5.57
2018-07-29T06:52:20.134Z,6.07
2018-07-29T06:54:49.325Z,6.03
2018-07-29T06:57:17.615Z,5.30
2018-07-29T06:59:45.544Z,5.90
2018-07-29T07:02:13.469Z,5.77
2018-07-29T07:04:41.393Z,5.70
2018-07-29T07:07:09.741Z,7.33
2018-07-29T07:09:38.668Z,5.77
2018-07-29T07:12:07.012Z,6.27
2018-07-29T07:14:35.693Z,6.43
2018-07-29T07:17:04.704Z,6.10
2018-07-29T07:19:33.068Z,5.57
2018-07-29T07:22:00.998Z,6.97
2018-07-29T07:24:29.525Z,6.17
2018-07-29T07:26:57.997Z,6.70
2018-07-29T07:29:26.436Z,6.03
2018-07-29T07:31:54.357Z,8.30
2018-07-29T07:34:22.476Z,6.77
2018-07-29T07:36:51.956Z,6.40
2018-07-29T07:39:20.280Z,6.37
2018-07-29T07:41:48.980Z,5.57
2018-07-29T07:44:17.401Z,6.10
2018-07-29T07:46:46.117Z,6.60
2018-07-29T07:49:14.349Z,6.57
2018-07-29T07:51:42.972Z,5.87
2018-07-29T07:54:12.849Z,5.70
2018-07-29T07:56:41.195Z,8.10
2018-07-29T07:59:09.875Z,6.30
2018-07-29T08:01:39.111Z,6.20
2018-07-29T08:04:07.477Z,6.40
2018-07-29T08:06:35.432Z,5.83
2018-07-29T08:09:05.426Z,6.80
2018-07-29T08:11:33.345Z,6.83
2018-07-29T08:14:01.725Z,6.97
2018-07-29T08:16:29.811Z,5.80
2018-07-29T08:18:57.948Z,5.63
2018-07-29T08:21:25.873Z,6.40
2018-07-29T08:23:54.628Z,6.30
2018-07-29T08:26:23.053Z,6.70
2018-07-29T08:28:50.968Z,6.43
2018-07-29T08:31:19.336Z,5.97
2018-07-29T08:33:48.797Z,7.10
2018-07-29T08:36:17.648Z,6.50
2018-07-29T08:38:47.045Z,6.03
2018-07-29T08:41:14.972Z,6.10
2018-07-29T08:43:44.401Z,9.13
2018-07-29T08:46:13.397Z,8.43
2018-07-29T08:48:41.677Z,6.33
2018-07-29T08:51:10.628Z,6.93
2018-07-29T08:53:39.765Z,6.17
2018-07-29T08:56:08.037Z,7.87
2018-07-29T08:58:36.277Z,5.97
2018-07-29T09:01:05.249Z,6.37
2018-07-29T09:03:33.169Z,6.10
2018-07-29T09:06:01.449Z,7.43
2018-07-29T09:08:29.829Z,6.67
2018-07-29T09:10:58.758Z,6.67
2018-07-29T09:13:26.613Z,5.97
2018-07-29T09:15:58.913Z,6.33
2018-07-29T09:18:29.157Z,5.10
2018-07-29T09:20:57.869Z,5.87
2018-07-29T09:23:26.678Z,5.73
2018-07-29T09:25:54.488Z,6.20
2018-07-29T09:28:25.259Z,5.20
2018-07-29T09:30:54.701Z,6.03
2018-07-29T09:33:22.545Z,6.47
2018-07-29T09:35:51.457Z,6.77
2018-07-29T09:38:19.389Z,6.40
2018-07-29T09:40:48.481Z,6.60
2018-07-29T09:43:16.840Z,6.17
2018-07-29T09:45:46.567Z,6.20
2018-07-29T09:48:15.365Z,5.90
2018-07-29T09:50:43.585Z,5.83
2018-07-29T09:53:11.882Z,6.57
2018-07-29T09:55:40.653Z,7.33
2018-07-29T09:58:09.181Z,4.93
2018-07-29T10:00:43.505Z,5.97
2018-07-29T10:03:11.801Z,5.90
2018-07-29T10:05:40.681Z,5.90
2018-07-29T10:08:08.901Z,5.23
2018-07-29T10:10:36.853Z,5.40
2018-07-29T10:13:05.257Z,4.90
2018-07-29T10:15:33.233Z,5.80
2018-07-29T10:18:01.497Z,5.53
2018-07-29T10:20:29.813Z,5.93
2018-07-29T10:22:58.086Z,5.67
2018-07-29T10:25:27.084Z,5.63
2018-07-29T10:27:54.982Z,5.30
2018-07-29T10:30:22.954Z,6.57
2018-07-29T10:32:51.256Z,5.50
2018-07-29T10:35:19.581Z,6.00
2018-07-29T10:37:47.476Z,5.40
2018-07-29T10:40:16.409Z,5.40
2018-07-29T10:42:44.308Z,5.40
2018-07-29T10:45:13.205Z,5.20
2018-07-29T10:47:41.227Z,5.70
2018-07-29T10:50:09.261Z,5.50
2018-07-29T10:52:37.193Z,4.70
2018-07-29T10:55:05.761Z,4.43
2018-07-29T10:57:34.132Z,5.27
2018-07-29T11:00:02.409Z,4.33
2018-07-29T11:02:30.716Z,4.50
2018-07-29T11:04:58.695Z,4.70
2018-07-29T11:07:26.672Z,4.80
2018-07-29T11:09:54.888Z,4.67
2018-07-29T11:12:23.780Z,5.30
2018-07-29T11:14:51.708Z,6.00
2018-07-29T11:17:19.866Z,5.43
2018-07-29T11:19:49.110Z,5.43
2018-07-29T11:22:18.261Z,5.33
2018-07-29T11:24:46.604Z,5.20
2018-07-29T11:27:14.873Z,5.50
2018-07-29T11:29:43.021Z,12.20
2018-07-29T11:32:12.402Z,4.83
2018-07-29T11:34:40.980Z,5.40
2018-07-29T11:37:09.208Z,4.80
2018-07-29T11:39:38.970Z,6.43
2018-07-29T11:42:08.429Z,5.50
2018-07-29T11:44:36.637Z,5.20
2018-07-29T11:47:04.913Z,5.63
2018-07-29T11:49:33.070Z,4.83
2018-07-29T11:52:01.533Z,5.80
2018-07-29T11:54:29.429Z,4.80
2018-07-29T11:56:57.677Z,4.70
2018-07-29T11:59:26.704Z,4.90
2018-07-29T12:01:56.013Z,4.90
2018-07-29T12:04:24.980Z,4.87
2018-07-29T12:06:52.889Z,5.43
2018-07-29T12:09:21.206Z,4.93
2018-07-29T12:11:50.211Z,5.03
2018-07-29T12:14:18.561Z,4.87
2018-07-29T12:16:47.437Z,5.50
2018-07-29T12:19:16.124Z,4.37
2018-07-29T12:21:44.357Z,4.80
2018-07-29T12:24:12.769Z,4.93
2018-07-29T12:26:41.024Z,4.90
2018-07-29T12:29:08.962Z,5.00
2018-07-29T12:31:38.733Z,5.80
2018-07-29T12:34:06.990Z,4.80
2018-07-29T12:36:35.209Z,4.60
2018-07-29T12:39:09.492Z,4.27
2018-07-29T12:41:37.884Z,4.40
2018-07-29T12:44:06.855Z,5.17
2018-07-29T12:46:36.024Z,3.93
2018-07-29T12:49:04.027Z,3.50
2018-07-29T12:51:32.513Z,3.83
2018-07-29T12:54:02.809Z,4.20
2018-07-29T12:56:32.212Z,4.60
2018-07-29T12:59:00.149Z,4.33
2018-07-29T13:01:28.465Z,5.40
2018-07-29T13:03:56.776Z,3.93
2018-07-29T13:06:24.874Z,4.40
2018-07-29T13:08:53.605Z,4.00
2018-07-29T13:11:22.250Z,3.93
2018-07-29T13:13:50.887Z,3.90
2018-07-29T13:16:19.245Z,4.50
2018-07-29T13:18:49.007Z,4.10
2018-07-29T13:21:19.113Z,4.00
2018-07-29T13:23:47.248Z,3.30
2018-07-29T13:26:15.665Z,3.93
2018-07-29T13:28:43.837Z,4.53
2018-07-29T13:31:13.936Z,3.60
2018-07-29T13:33:42.305Z,3.97
2018-07-29T13:36:10.655Z,4.47
2018-07-29T13:38:39.264Z,3.67
2018-07-29T13:41:08.056Z,3.43
2018-07-29T13:43:36.513Z,3.67
2018-07-29T13:46:05.638Z,3.93
2018-07-29T13:48:34.421Z,4.30
2018-07-29T13:51:03.736Z,4.03
2018-07-29T13:53:32.487Z,3.87
2018-07-29T13:56:00.846Z,3.53
2018-07-29T13:58:28.732Z,4.30
2018-07-29T14:00:56.937Z,3.83
2018-07-29T14:03:25.205Z,3.77
2018-07-29T14:05:53.522Z,4.10
2018-07-29T14:08:21.557Z,3.80
2018-07-29T14:10:49.485Z,3.30
2018-07-29T14:13:17.500Z,3.90
2018-07-29T14:15:46.100Z,3.93
2018-07-29T14:18:14.072Z,3.57
2018-07-29T14:20:42.284Z,3.70
2018-07-29T14:23:10.496Z,3.50
2018-07-29T14:25:39.317Z,3.40
2018-07-29T14:28:07.562Z,4.23
2018-07-29T14:30:35.456Z,3.50
2018-07-29T14:33:05.785Z,3.90
2018-07-29T14:35:33.953Z,3.77
2018-07-29T14:38:02.049Z,4.13
2018-07-29T14:40:29.995Z,3.67
2018-07-29T14:42:58.552Z,3.33
2018-07-29T14:45:27.896Z,3.67
2018-07-29T14:47:56.608Z,4.40
2018-07-29T14:50:25.331Z,3.80
2018-07-29T14:52:54.918Z,3.97
2018-07-29T14:55:24.103Z,4.07
2018-07-29T14:57:52.491Z,3.97
2018-07-29T15:00:20.784Z,3.80
2018-07-29T15:02:49.584Z,3.80
2018-07-29T15:05:17.965Z,4.23
2018-07-29T15:07:46.677Z,3.73
2018-07-29T15:10:18.865Z,4.13
2018-07-29T15:12:47.229Z,4.07
2018-07-29T15:15:15.573Z,3.07
2018-07-29T15:17:44.564Z,3.77
2018-07-29T15:20:13.912Z,4.10
2018-07-29T15:22:42.287Z,3.50
2018-07-29T15:25:11.040Z,3.43
2018-07-29T15:27:38.977Z,3.40
2018-07-29T15:30:08.424Z,3.70
2018-07-29T15:32:37.197Z,4.10
2018-07-29T15:35:06.554Z,3.67
2018-07-29T15:37:35.517Z,4.30
2018-07-29T15:40:04.005Z,3.50
2018-07-29T15:42:33.176Z,4.50
2018-07-29T15:45:01.364Z,4.10
2018-07-29T15:47:30.857Z,4.40
2018-07-29T15:49:59.194Z,4.03
2018-07-29T15:52:28.528Z,3.67
2018-07-29T15:54:57.281Z,3.60
2018-07-29T15:57:25.554Z,3.63
2018-07-29T15:59:53.565Z,3.97
2018-07-29T16:02:21.832Z,3.57
2018-07-29T16:04:50.133Z,3.63
2018-07-29T16:07:18.114Z,4.63
2018-07-29T16:09:47.517Z,4.30
2018-07-29T16:12:15.692Z,5.67
2018-07-29T16:14:44.448Z,3.27
2018-07-29T16:17:12.849Z,5.80
2018-07-29T16:19:40.928Z,4.50
2018-07-29T16:22:09.237Z,4.30
2018-07-29T16:24:37.517Z,4.00
2018-07-29T16:27:07.288Z,4.60
2018-07-29T16:29:35.500Z,4.03
2018-07-29T16:32:04.121Z,4.57
2018-07-29T16:34:32.736Z,4.23
2018-07-29T16:37:01.493Z,4.27
2018-07-29T16:39:29.431Z,4.53
2018-07-29T16:41:58.173Z,4.47
2018-07-29T16:44:27.141Z,3.57
2018-07-29T16:46:59.428Z,4.17
2018-07-29T16:49:27.669Z,4.37
2018-07-29T16:51:57.573Z,4.17
2018-07-29T16:54:25.565Z,4.47
2018-07-29T16:56:53.504Z,4.63
2018-07-29T16:59:21.440Z,4.80
2018-07-29T17:01:50.712Z,4.40
2018-07-29T17:04:18.676Z,3.93
2018-07-29T17:06:47.373Z,4.50
2018-07-29T17:09:15.396Z,4.20
2018-07-29T17:11:43.333Z,4.47
2018-07-29T17:14:12.604Z,4.67
2018-07-29T17:16:42.929Z,4.60
2018-07-29T17:19:11.113Z,5.10
2018-07-29T17:21:41.841Z,5.37
2018-07-29T17:24:10.288Z,5.40
2018-07-29T17:26:39.317Z,7.97
2018-07-29T17:29:09.365Z,5.77
2018-07-29T17:31:37.652Z,5.00
2018-07-29T17:34:05.529Z,5.60
2018-07-29T17:36:33.843Z,7.27
2018-07-29T17:39:01.793Z,6.37
2018-07-29T17:41:30.957Z,5.60
2018-07-29T17:43:59.573Z,5.80
2018-07-29T17:46:27.845Z,5.63
2018-07-29T17:48:56.077Z,4.87
2018-07-29T17:51:24.849Z,5.27
2018-07-29T17:53:52.812Z,5.70
2018-07-29T17:56:21.501Z,6.30
2018-07-29T17:58:49.993Z,5.50
2018-07-29T18:01:18.608Z,5.63
2018-07-29T18:03:47.252Z,6.20
2018-07-29T18:06:15.206Z,7.97
2018-07-29T18:08:44.341Z,6.00
2018-07-29T18:11:12.269Z,7.43
2018-07-29T18:13:40.626Z,6.40
2018-07-29T18:16:09.925Z,7.07
2018-07-29T18:18:38.241Z,6.10
2018-07-29T18:21:06.722Z,7.27
2018-07-29T18:23:35.081Z,6.23
2018-07-29T18:26:03.972Z,6.50
2018-07-29T18:28:32.589Z,7.53
2018-07-29T18:31:00.917Z,6.80
2018-07-29T18:33:29.297Z,8.43
2018-07-29T18:35:58.560Z,6.53
2018-07-29T18:38:26.476Z,8.53
2018-07-29T18:40:54.832Z,7.00
2018-07-29T18:43:23.493Z,7.50
2018-07-29T18:45:51.465Z,7.53
2018-07-29T18:48:20.282Z,9.07
2018-07-29T18:50:48.604Z,6.90
2018-07-29T18:53:16.876Z,7.67
2018-07-29T18:55:45.204Z,6.53
2018-07-29T18:58:13.970Z,8.73
2018-07-29T19:00:42.728Z,6.60
2018-07-29T19:03:11.095Z,7.97
2018-07-29T19:05:39.493Z,7.83
2018-07-29T19:08:07.424Z,11.63
2018-07-29T19:10:37.192Z,8.50
2018-07-29T19:13:05.108Z,7.20
2018-07-29T19:15:33.721Z,6.87
2018-07-29T19:18:01.632Z,7.10
2018-07-29T19:20:29.867Z,7.77
2018-07-29T19:22:58.879Z,7.87
2018-07-29T19:25:27.649Z,7.20
2018-07-29T19:27:55.921Z,7.43
2018-07-29T19:30:24.897Z,7.17
2018-07-29T19:32:53.845Z,7.40
2018-07-29T19:35:22.649Z,7.33
2018-07-29T19:37:52.569Z,7.00
2018-07-29T19:40:20.885Z,7.50
2018-07-29T19:42:49.273Z,7.60
2018-07-29T19:45:17.217Z,7.27
2018-07-29T19:47:47.417Z,8.53
2018-07-29T19:50:16.396Z,7.20
2018-07-29T19:52:44.502Z,6.73
2018-07-29T19:55:13.833Z,7.30
2018-07-29T19:57:43.665Z,7.57
2018-07-29T20:00:12.029Z,8.00
2018-07-29T20:02:41.393Z,8.47
2018-07-29T20:05:09.311Z,6.83
2018-07-29T20:07:37.259Z,8.20
2018-07-29T20:10:05.740Z,7.63
2018-07-29T20:12:34.096Z,8.17
2018-07-29T20:15:02.369Z,7.50
2018-07-29T20:17:32.475Z,8.00
2018-07-29T20:20:01.557Z,8.57
2018-07-29T20:22:30.599Z,7.30
2018-07-29T20:25:00.409Z,8.70
2018-07-29T20:27:29.929Z,7.43
2018-07-29T20:29:58.545Z,8.17
2018-07-29T20:32:27.185Z,7.17
2018-07-29T20:34:56.997Z,7.60
2018-07-29T20:37:25.490Z,8.33
2018-07-29T20:39:53.703Z,7.90
2018-07-29T20:42:27.449Z,7.27
2018-07-29T20:44:55.393Z,7.93
2018-07-29T20:47:24.122Z,8.23
2018-07-29T20:49:52.756Z,7.20
2018-07-29T20:52:21.073Z,7.73
2018-07-29T20:54:49.549Z,8.50
2018-07-29T20:57:18.753Z,8.20
2018-07-29T20:59:47.442Z,7.87
2018-07-29T21:02:15.639Z,8.47
2018-07-29T21:04:43.787Z,7.70
2018-07-29T21:07:12.865Z,11.13
2018-07-29T21:09:40.802Z,8.10
2018-07-29T21:12:10.049Z,10.30
2018-07-29T21:14:38.193Z,8.70
2018-07-29T21:17:06.521Z,8.63
2018-07-29T21:19:34.458Z,8.17
2018-07-29T21:22:02.813Z,8.60
2018-07-29T21:24:31.554Z,8.77
2018-07-29T21:27:00.008Z,8.10
2018-07-29T21:29:28.337Z,8.90
2018-07-29T21:31:57.152Z,8.13
2018-07-29T21:34:25.077Z,8.67
2018-07-29T21:36:53.901Z,8.17
2018-07-29T21:39:22.221Z,8.40
2018-07-29T21:41:51.301Z,9.23
2018-07-29T21:44:19.708Z,9.57
2018-07-29T21:46:48.032Z,9.33
2018-07-29T21:49:16.758Z,9.47
2018-07-29T21:51:44.665Z,8.73
2018-07-29T21:54:16.174Z,9.33
2018-07-29T21:56:44.597Z,8.80
2018-07-29T21:59:12.537Z,9.20
2018-07-29T22:01:42.445Z,9.50
2018-07-29T22:04:10.381Z,8.70
2018-07-29T22:06:38.740Z,9.20
2018-07-29T22:09:15.269Z,8.90
2018-07-29T22:11:44.051Z,8.87
2018-07-29T22:14:11.973Z,8.80
2018-07-29T22:16:40.614Z,9.30
2018-07-29T22:19:09.449Z,8.73
2018-07-29T22:21:38.377Z,8.60
2018-07-29T22:24:14.097Z,9.40
2018-07-29T22:26:48.145Z,9.60
2018-07-29T22:29:21.941Z,8.60
2018-07-29T22:31:55.933Z,8.73
2018-07-29T22:34:24.238Z,9.07
2018-07-29T22:36:53.449Z,8.80
2018-07-29T22:39:21.673Z,10.63
2018-07-29T22:41:49.989Z,9.63
2018-07-29T22:44:19.224Z,10.00
2018-07-29T22:46:47.588Z,9.60
2018-07-29T22:49:17.142Z,9.60
2018-07-29T22:51:45.622Z,9.23
2018-07-29T22:54:16.105Z,9.20
2018-07-29T22:56:43.848Z,9.90
2018-07-29T22:59:12.294Z,10.67
2018-07-29T23:01:40.581Z,12.70
2018-07-29T23:04:08.990Z,9.43
2018-07-29T23:06:37.069Z,9.90
2018-07-29T23:09:14.639Z,10.40
2018-07-29T23:11:43.433Z,9.40
2018-07-29T23:14:12.488Z,8.90
2018-07-29T23:16:40.801Z,9.47
2018-07-29T23:19:09.145Z,8.90
2018-07-29T23:21:37.423Z,9.70
2018-07-29T23:24:07.766Z,8.60
2018-07-29T23:26:36.532Z,9.80
2018-07-29T23:29:04.842Z,9.73
2018-07-29T23:31:33.830Z,9.03
2018-07-29T23:34:01.750Z,9.60
2018-07-29T23:36:30.294Z,10.50
2018-07-29T23:38:58.574Z,10.17
2018-07-29T23:41:27.372Z,10.73
2018-07-29T23:43:55.324Z,9.03
2018-07-29T23:46:23.721Z,10.70
2018-07-29T23:48:52.293Z,9.70
2018-07-29T23:51:20.222Z,10.00
2018-07-29T23:53:48.851Z,9.67
2018-07-29T23:56:17.257Z,10.20
2018-07-29T23:58:45.817Z,10.80
